createdAt,value
2018-06-01T00:00:08.721Z,66.08
2018-06-01T00:01:18.888Z,66.75
2018-06-01T00:02:29.089Z,66.56
2018-06-01T00:03:40.907Z,66.56
2018-06-01T00:04:53.174Z,66.75
2018-06-01T00:06:04.535Z,66.56
2018-06-01T00:07:15.537Z,66.75
2018-06-01T00:08:26.202Z,66.85
2018-06-01T00:09:38.224Z,66.95
2018-06-01T00:10:49.828Z,66.75
2018-06-01T00:12:00.201Z,66.56
2018-06-01T00:13:10.547Z,66.75
2018-06-01T00:14:21.736Z,66.66
2018-06-01T00:15:32.153Z,66.47
2018-06-01T00:16:42.504Z,67.01
2018-06-01T00:17:52.858Z,66.75
2018-06-01T00:19:03.898Z,66.63
2018-06-01T00:20:13.777Z,67.14
2018-06-01T00:21:23.957Z,67.11
2018-06-01T00:22:34.122Z,67.21
2018-06-01T00:23:44.294Z,67.01
2018-06-01T00:24:54.480Z,67.01
2018-06-01T00:26:04.623Z,67.59
2018-06-01T00:27:14.962Z,67.69
2018-06-01T00:28:25.341Z,67.69
2018-06-01T00:29:35.505Z,67.59
2018-06-01T00:30:45.424Z,67.69
2018-06-01T00:31:55.311Z,67.11
2018-06-01T00:33:05.214Z,67.79
2018-06-01T00:34:15.590Z,67.98
2018-06-01T00:35:25.978Z,68.17
2018-06-01T00:36:36.247Z,67.98
2018-06-01T00:37:46.459Z,67.98
2018-06-01T00:38:56.371Z,68.08
2018-06-01T00:40:06.721Z,67.98
2018-06-01T00:41:16.936Z,67.79
2018-06-01T00:42:27.328Z,67.98
2018-06-01T00:43:37.931Z,68.46
2018-06-01T00:44:48.402Z,68.56
2018-06-01T00:45:59.363Z,68.37
2018-06-01T00:47:10.174Z,68.56
2018-06-01T00:48:21.972Z,68.66
2018-06-01T00:49:32.969Z,68.91
2018-06-01T00:50:43.393Z,68.43
2018-06-01T00:51:53.970Z,69.3
2018-06-01T00:53:04.549Z,68.52
2018-06-01T00:54:15.232Z,68.72
2018-06-01T00:55:26.088Z,69.01
2018-06-01T00:56:37.886Z,68.72
2018-06-01T00:57:49.861Z,69.2
2018-06-01T00:59:00.707Z,69.01
2018-06-01T01:00:11.911Z,69.4
2018-06-01T01:01:22.927Z,69.4
2018-06-01T01:02:33.756Z,69.4
2018-06-01T01:03:44.916Z,69.88
2018-06-01T01:04:55.834Z,69.3
2018-06-01T01:06:06.436Z,69.59
2018-06-01T01:07:16.316Z,69.74
2018-06-01T01:08:27.081Z,69.65
2018-06-01T01:09:38.050Z,69.74
2018-06-01T01:10:48.836Z,69.94
2018-06-01T01:11:59.410Z,69.84
2018-06-01T01:13:10.050Z,69.74
2018-06-01T01:14:21.256Z,69.88
2018-06-01T01:15:31.624Z,70.23
2018-06-01T01:16:41.945Z,70.14
2018-06-01T01:17:52.755Z,70.14
2018-06-01T01:19:04.562Z,70.07
2018-06-01T01:20:14.729Z,70.32
2018-06-01T01:21:24.876Z,70.23
2018-06-01T01:22:35.837Z,70.42
2018-06-01T01:23:46.144Z,70.14
2018-06-01T01:24:56.708Z,70.42
2018-06-01T01:26:06.892Z,70.52
2018-06-01T01:27:17.451Z,70.04
2018-06-01T01:28:28.077Z,70.81
2018-06-01T01:29:38.869Z,70.9
2018-06-01T01:30:49.290Z,70.62
2018-06-01T01:31:59.853Z,71.2
2018-06-01T01:33:11.945Z,71.78
2018-06-01T01:34:21.859Z,70.9
2018-06-01T01:35:32.632Z,71.88
2018-06-01T01:36:42.803Z,71.78
2018-06-01T01:37:53.163Z,71.58
2018-06-01T01:39:03.956Z,71.3
2018-06-01T01:40:14.714Z,71.26
2018-06-01T01:41:24.893Z,71.84
2018-06-01T01:42:35.525Z,71.84
2018-06-01T01:43:45.922Z,71.84
2018-06-01T01:44:56.056Z,71.84
2018-06-01T01:46:06.239Z,72.13
2018-06-01T01:47:16.784Z,72.32
2018-06-01T01:48:27.939Z,72.52
2018-06-01T01:49:38.784Z,72.03
2018-06-01T01:50:49.328Z,72.03
2018-06-01T01:51:59.354Z,72.13
2018-06-01T01:53:09.520Z,72.13
2018-06-01T01:54:20.342Z,72.03
2018-06-01T01:55:31.518Z,72.52
2018-06-01T01:56:41.333Z,72.13
2018-06-01T01:57:52.093Z,72.32
2018-06-01T01:59:02.682Z,72.03
2018-06-01T02:00:13.480Z,72.22
2018-06-01T02:01:24.658Z,72.22
2018-06-01T02:02:34.808Z,72.22
2018-06-01T02:03:45.559Z,72.52
2018-06-01T02:04:55.722Z,72.22
2018-06-01T02:06:05.897Z,71.64
2018-06-01T02:07:16.087Z,71.64
2018-06-01T02:08:26.259Z,71.55
2018-06-01T02:09:37.034Z,71.94
2018-06-01T02:10:47.807Z,71.74
2018-06-01T02:11:58.004Z,71.74
2018-06-01T02:13:08.471Z,71.84
2018-06-01T02:14:18.329Z,71.84
2018-06-01T02:15:28.717Z,71.64
2018-06-01T02:16:39.062Z,71.84
2018-06-01T02:17:49.437Z,72.03
2018-06-01T02:18:59.892Z,71.94
2018-06-01T02:20:10.306Z,71.94
2018-06-01T02:21:20.576Z,72.03
2018-06-01T02:22:31.063Z,71.84
2018-06-01T02:23:41.206Z,71.84
2018-06-01T02:24:51.376Z,71.94
2018-06-01T02:26:01.554Z,71.84
2018-06-01T02:27:11.931Z,71.74
2018-06-01T02:28:22.586Z,71.64
2018-06-01T02:29:32.940Z,71.84
2018-06-01T02:30:43.090Z,71.84
2018-06-01T02:31:53.439Z,71.84
2018-06-01T02:33:04.134Z,71.55
2018-06-01T02:34:14.276Z,71.84
2018-06-01T02:35:24.715Z,71.94
2018-06-01T02:36:34.911Z,71.84
2018-06-01T02:37:45.090Z,71.74
2018-06-01T02:38:55.246Z,71.94
2018-06-01T02:40:05.381Z,71.45
2018-06-01T02:41:15.749Z,71.55
2018-06-01T02:42:25.917Z,71.74
2018-06-01T02:43:36.345Z,71.9
2018-06-01T02:44:46.512Z,72.13
2018-06-01T02:45:56.700Z,72.32
2018-06-01T02:47:06.596Z,72
2018-06-01T02:48:16.774Z,72.38
2018-06-01T02:49:26.942Z,72.13
2018-06-01T02:50:37.514Z,72
2018-06-01T02:51:47.720Z,72.19
2018-06-01T02:52:57.826Z,71.8
2018-06-01T02:54:08.189Z,71.8
2018-06-01T02:55:18.545Z,72.09
2018-06-01T02:56:28.709Z,72.19
2018-06-01T02:57:38.917Z,72.09
2018-06-01T02:58:49.337Z,71.9
2018-06-01T02:59:59.502Z,72.38
2018-06-01T03:01:10.292Z,72.28
2018-06-01T03:02:20.456Z,72.19
2018-06-01T03:03:30.649Z,72.96
2018-06-01T03:04:40.821Z,72.67
2018-06-01T03:05:51.091Z,72.67
2018-06-01T03:07:01.473Z,72.58
2018-06-01T03:08:11.609Z,72.86
2018-06-01T03:09:22.208Z,72.77
2018-06-01T03:10:32.519Z,72.96
2018-06-01T03:11:42.678Z,72.86
2018-06-01T03:12:53.038Z,73.06
2018-06-01T03:14:03.305Z,72.96
2018-06-01T03:15:13.733Z,73.06
2018-06-01T03:16:23.925Z,72.96
2018-06-01T03:17:34.059Z,73.15
2018-06-01T03:18:44.241Z,73.06
2018-06-01T03:19:54.415Z,73.25
2018-06-01T03:21:04.316Z,73.15
2018-06-01T03:22:14.230Z,72.96
2018-06-01T03:23:24.385Z,72.77
2018-06-01T03:24:34.526Z,72.86
2018-06-01T03:25:44.935Z,73.15
2018-06-01T03:26:55.077Z,73.44
2018-06-01T03:28:05.228Z,73.06
2018-06-01T03:29:15.144Z,73.25
2018-06-01T03:30:25.522Z,73.73
2018-06-01T03:31:35.874Z,73.83
2018-06-01T03:32:46.419Z,73.63
2018-06-01T03:33:56.565Z,73.63
2018-06-01T03:35:06.484Z,73.44
2018-06-01T03:36:16.667Z,73.63
2018-06-01T03:37:26.857Z,73.83
2018-06-01T03:38:37.032Z,73.63
2018-06-01T03:39:47.189Z,73.44
2018-06-01T03:40:57.324Z,73.44
2018-06-01T03:42:07.464Z,73.44
2018-06-01T03:43:18.314Z,73.54
2018-06-01T03:44:28.323Z,73.73
2018-06-01T03:45:38.494Z,73.83
2018-06-01T03:46:48.898Z,73.83
2018-06-01T03:47:59.234Z,73.73
2018-06-01T03:49:09.386Z,73.83
2018-06-01T03:50:19.565Z,73.83
2018-06-01T03:51:29.726Z,73.63
2018-06-01T03:52:40.103Z,73.44
2018-06-01T03:53:50.594Z,73.54
2018-06-01T03:55:01.016Z,73.67
2018-06-01T03:56:11.344Z,73.63
2018-06-01T03:57:21.252Z,73.44
2018-06-01T03:58:31.370Z,73.63
2018-06-01T03:59:41.578Z,74.06
2018-06-01T04:00:51.982Z,73.86
2018-06-01T04:02:02.462Z,73.67
2018-06-01T04:03:12.805Z,73.77
2018-06-01T04:04:23.111Z,73.67
2018-06-01T04:05:33.322Z,73.96
2018-06-01T04:06:43.631Z,73.77
2018-06-01T04:07:53.790Z,73.58
2018-06-01T04:09:04.172Z,73.77
2018-06-01T04:10:14.321Z,74.06
2018-06-01T04:11:24.487Z,74.16
2018-06-01T04:12:34.847Z,74.16
2018-06-01T04:13:44.981Z,74.25
2018-06-01T04:14:55.210Z,74.35
2018-06-01T04:16:05.360Z,74.44
2018-06-01T04:17:15.600Z,74.06
2018-06-01T04:18:25.798Z,74.06
2018-06-01T04:19:36.029Z,74.06
2018-06-01T04:20:46.227Z,74.06
2018-06-01T04:21:56.429Z,74.06
2018-06-01T04:23:06.591Z,73.77
2018-06-01T04:24:16.995Z,74.06
2018-06-01T04:25:27.584Z,73.96
2018-06-01T04:26:38.515Z,74.16
2018-06-01T04:27:49.261Z,74.16
2018-06-01T04:28:59.928Z,73.48
2018-06-01T04:30:10.009Z,73.67
2018-06-01T04:31:20.594Z,73.09
2018-06-01T04:32:31.280Z,73.19
2018-06-01T04:33:41.699Z,73.03
2018-06-01T04:34:51.868Z,73.03
2018-06-01T04:36:02.173Z,72.45
2018-06-01T04:37:12.322Z,72.06
2018-06-01T04:38:22.479Z,72.36
2018-06-01T04:39:32.636Z,71.97
2018-06-01T04:40:42.831Z,71.97
2018-06-01T04:41:53.298Z,72.16
2018-06-01T04:43:03.877Z,72.06
2018-06-01T04:44:14.090Z,72.26
2018-06-01T04:45:24.032Z,72.16
2018-06-01T04:46:34.174Z,71.58
2018-06-01T04:47:44.365Z,71.58
2018-06-01T04:48:54.733Z,71.58
2018-06-01T04:50:04.887Z,71.39
2018-06-01T04:51:15.539Z,70.75
2018-06-01T04:52:26.288Z,70.84
2018-06-01T04:53:36.666Z,70.65
2018-06-01T04:54:46.903Z,70.75
2018-06-01T04:55:57.040Z,70.84
2018-06-01T04:57:07.257Z,70.75
2018-06-01T04:58:17.237Z,70.65
2018-06-01T04:59:26.535Z,70.75
2018-06-01T05:00:36.696Z,70.36
2018-06-01T05:01:46.864Z,70.17
2018-06-01T05:02:57.073Z,70.46
2018-06-01T05:04:07.367Z,70.17
2018-06-01T05:05:17.546Z,69.78
2018-06-01T05:06:27.846Z,69.98
2018-06-01T05:07:37.729Z,69.68
2018-06-01T05:08:47.885Z,69.98
2018-06-01T05:09:58.035Z,69.68
2018-06-01T05:11:08.196Z,69.68
2018-06-01T05:12:18.436Z,69.3
2018-06-01T05:13:28.646Z,69.3
2018-06-01T05:14:38.844Z,69.2
2018-06-01T05:15:49.039Z,69.3
2018-06-01T05:16:59.254Z,69.2
2018-06-01T05:18:09.446Z,69.04
2018-06-01T05:19:19.581Z,69.14
2018-06-01T05:20:29.488Z,69.04
2018-06-01T05:21:39.822Z,68.66
2018-06-01T05:22:50.008Z,68.75
2018-06-01T05:23:59.853Z,68.27
2018-06-01T05:25:10.055Z,68.37
2018-06-01T05:26:21.186Z,68.56
2018-06-01T05:27:31.329Z,69.14
2018-06-01T05:28:41.524Z,68.46
2018-06-01T05:29:51.731Z,68.56
2018-06-01T05:31:01.903Z,68.56
2018-06-01T05:32:11.947Z,68.56
2018-06-01T05:33:22.084Z,68.75
2018-06-01T05:34:32.264Z,68.85
2018-06-01T05:35:42.420Z,68.66
2018-06-01T05:36:52.687Z,68.3
2018-06-01T05:38:02.886Z,68.56
2018-06-01T05:39:13.044Z,68.75
2018-06-01T05:40:23.202Z,68.49
2018-06-01T05:41:33.110Z,68.66
2018-06-01T05:42:43.254Z,68.85
2018-06-01T05:43:53.401Z,68.75
2018-06-01T05:45:03.556Z,68.56
2018-06-01T05:46:13.728Z,68.56
2018-06-01T05:47:24.154Z,68.46
2018-06-01T05:48:34.356Z,68.37
2018-06-01T05:49:44.277Z,68.85
2018-06-01T05:50:54.416Z,68.66
2018-06-01T05:52:04.305Z,68.75
2018-06-01T05:53:14.696Z,68.4
2018-06-01T05:54:24.933Z,68.46
2018-06-01T05:55:36.195Z,68.3
2018-06-01T05:56:46.855Z,68.75
2018-06-01T05:57:57.529Z,68.56
2018-06-01T05:59:07.806Z,68.59
2018-06-01T06:00:18.221Z,68.3
2018-06-01T06:01:28.382Z,67.91
2018-06-01T06:02:38.514Z,67.91
2018-06-01T06:03:48.712Z,68.01
2018-06-01T06:04:58.881Z,68.21
2018-06-01T06:06:09.267Z,68.11
2018-06-01T06:07:19.415Z,68.11
2018-06-01T06:08:29.644Z,68.11
2018-06-01T06:09:39.796Z,67.91
2018-06-01T06:10:49.688Z,67.43
2018-06-01T06:11:59.682Z,67.43
2018-06-01T06:13:09.873Z,67.53
2018-06-01T06:14:20.089Z,67.53
2018-06-01T06:15:30.266Z,67.4
2018-06-01T06:16:40.733Z,67.3
2018-06-01T06:17:51.006Z,67.49
2018-06-01T06:19:01.449Z,68.08
2018-06-01T06:20:11.815Z,67.98
2018-06-01T06:21:22.092Z,68.08
2018-06-01T06:22:32.473Z,67.98
2018-06-01T06:23:42.885Z,68.11
2018-06-01T06:24:53.272Z,67.69
2018-06-01T06:26:03.628Z,67.69
2018-06-01T06:27:13.800Z,67.3
2018-06-01T06:28:23.713Z,67.3
2018-06-01T06:29:33.860Z,67.59
2018-06-01T06:30:44.293Z,67.4
2018-06-01T06:31:54.795Z,67.4
2018-06-01T06:33:06.725Z,67.3
2018-06-01T06:34:16.908Z,67.88
2018-06-01T06:35:28.056Z,68.17
2018-06-01T06:36:38.228Z,67.69
2018-06-01T06:37:48.479Z,68.08
2018-06-01T06:39:30.619Z,68.17
2018-06-01T06:40:40.782Z,68.37
2018-06-01T06:41:50.917Z,68.27
2018-06-01T06:43:01.145Z,67.98
2018-06-01T06:44:11.550Z,67.69
2018-06-01T06:45:21.751Z,67.98
2018-06-01T06:46:31.899Z,67.88
2018-06-01T06:47:41.775Z,68.08
2018-06-01T06:48:51.960Z,68.17
2018-06-01T06:50:02.145Z,67.88
2018-06-01T06:51:12.377Z,68.37
2018-06-01T06:52:22.185Z,68.75
2018-06-01T06:53:32.327Z,68.56
2018-06-01T06:54:42.458Z,68.75
2018-06-01T06:55:52.659Z,68.75
2018-06-01T06:57:03.813Z,68.85
2018-06-01T06:58:14.130Z,69.04
2018-06-01T06:59:24.777Z,68.75
2018-06-01T07:00:35.076Z,68.52
2018-06-01T07:01:45.258Z,68.62
2018-06-01T07:02:55.404Z,69.14
2018-06-01T07:04:05.787Z,69.3
2018-06-01T07:05:30.610Z,69.1
2018-06-01T07:06:40.750Z,69.2
2018-06-01T07:07:50.946Z,69.49
2018-06-01T07:09:01.323Z,69.49
2018-06-01T07:10:11.555Z,69.3
2018-06-01T07:11:21.727Z,69.4
2018-06-01T07:12:31.878Z,69.4
2018-06-01T07:13:41.759Z,69.49
2018-06-01T07:14:51.798Z,69.2
2018-06-01T07:16:01.985Z,69.3
2018-06-01T07:17:12.379Z,69.2
2018-06-01T07:18:22.550Z,69.49
2018-06-01T07:19:32.693Z,69.59
2018-06-01T07:20:42.919Z,69.3
2018-06-01T07:21:53.168Z,68.62
2018-06-01T07:23:03.311Z,69.01
2018-06-01T07:24:13.478Z,69.68
2018-06-01T07:25:23.818Z,69.49
2018-06-01T07:26:34.084Z,69.3
2018-06-01T07:27:44.408Z,69.59
2018-06-01T07:28:54.984Z,69.68
2018-06-01T07:30:04.792Z,69.68
2018-06-01T07:31:15.196Z,70.14
2018-06-01T07:32:26.330Z,69.94
2018-06-01T07:33:36.314Z,70.32
2018-06-01T07:34:46.720Z,70.07
2018-06-01T07:35:56.629Z,70.26
2018-06-01T07:37:06.559Z,70.46
2018-06-01T07:38:16.247Z,70.17
2018-06-01T07:39:26.499Z,70.26
2018-06-01T07:40:36.689Z,70.36
2018-06-01T07:41:47.114Z,70.75
2018-06-01T07:42:57.279Z,70.46
2018-06-01T07:44:07.418Z,70.75
2018-06-01T07:45:17.623Z,70.84
2018-06-01T07:46:27.775Z,71.23
2018-06-01T07:47:37.986Z,71.04
2018-06-01T07:48:48.167Z,71.04
2018-06-01T07:49:58.536Z,71.52
2018-06-01T07:51:08.419Z,71.33
2018-06-01T07:52:18.796Z,71.91
2018-06-01T07:53:29.038Z,71.42
2018-06-01T07:54:39.044Z,72.3
2018-06-01T07:55:49.333Z,72.1
2018-06-01T07:56:59.483Z,72.49
2018-06-01T07:58:09.645Z,72.49
2018-06-01T07:59:19.797Z,72.78
2018-06-01T08:00:29.986Z,72.68
2018-06-01T08:01:40.245Z,72.78
2018-06-01T08:02:50.399Z,72.78
2018-06-01T08:04:00.530Z,73.07
2018-06-01T08:05:10.795Z,72.97
2018-06-01T08:06:21.005Z,72.58
2018-06-01T08:07:31.298Z,72.42
2018-06-01T08:08:41.513Z,72.33
2018-06-01T08:09:51.393Z,71.84
2018-06-01T08:11:01.571Z,72.62
2018-06-01T08:12:12.254Z,72.52
2018-06-01T08:13:22.646Z,72.24
2018-06-01T08:14:32.788Z,72.04
2018-06-01T08:15:43.014Z,71.66
2018-06-01T08:16:53.185Z,72.33
2018-06-01T08:18:03.348Z,72.24
2018-06-01T08:19:13.744Z,72.24
2018-06-01T08:20:24.059Z,72.24
2018-06-01T08:21:34.193Z,72.39
2018-06-01T08:22:44.580Z,72.97
2018-06-01T08:24:26.683Z,72.39
2018-06-01T08:25:36.542Z,72.58
2018-06-01T08:26:46.733Z,73.16
2018-06-01T08:27:56.820Z,72.97
2018-06-01T08:29:06.382Z,73.1
2018-06-01T08:30:16.749Z,72.81
2018-06-01T08:31:26.962Z,72.91
2018-06-01T08:32:37.211Z,73.3
2018-06-01T08:33:47.781Z,73.2
2018-06-01T08:34:57.939Z,73.3
2018-06-01T08:36:08.115Z,73.39
2018-06-01T08:37:18.584Z,72.62
2018-06-01T08:38:28.987Z,72.95
2018-06-01T08:39:39.456Z,72.56
2018-06-01T08:40:49.636Z,72.36
2018-06-01T08:42:00.045Z,72.75
2018-06-01T08:43:10.187Z,72.66
2018-06-01T08:44:20.378Z,72.56
2018-06-01T08:45:30.542Z,72.17
2018-06-01T08:46:40.518Z,72.3
2018-06-01T08:47:50.901Z,72.11
2018-06-01T08:49:00.472Z,71.82
2018-06-01T08:50:10.651Z,72.02
2018-06-01T08:51:20.545Z,71.92
2018-06-01T08:52:30.819Z,71.53
2018-06-01T08:53:41.346Z,71.66
2018-06-01T08:54:51.509Z,71.28
2018-06-01T08:56:01.653Z,71.18
2018-06-01T08:57:11.806Z,70.31
2018-06-01T08:58:22.017Z,70.44
2018-06-01T08:59:32.391Z,70.15
2018-06-01T09:00:42.238Z,69.47
2018-06-01T09:01:52.395Z,69.37
2018-06-01T09:03:02.814Z,69.18
2018-06-01T09:04:13.224Z,69.18
2018-06-01T09:05:23.607Z,69.02
2018-06-01T09:06:33.780Z,68.73
2018-06-01T09:07:43.945Z,68.92
2018-06-01T09:08:54.096Z,68.82
2018-06-01T09:10:04.360Z,67.6
2018-06-01T09:11:14.492Z,67.4
2018-06-01T09:12:24.772Z,67.31
2018-06-01T09:13:34.941Z,66.66
2018-06-01T09:14:44.855Z,66.95
2018-06-01T09:15:55.024Z,66.95
2018-06-01T09:17:05.157Z,66.47
2018-06-01T09:18:15.065Z,66.27
2018-06-01T09:19:25.227Z,66.08
2018-06-01T09:20:35.414Z,66.17
2018-06-01T09:21:45.646Z,65.89
2018-06-01T09:22:55.448Z,66.56
2018-06-01T09:24:05.343Z,65.69
2018-06-01T09:25:15.527Z,65.89
2018-06-01T09:26:25.856Z,65.79
2018-06-01T09:27:36.145Z,65.3
2018-06-01T09:28:46.558Z,65.4
2018-06-01T09:29:56.961Z,64.82
2018-06-01T09:31:07.409Z,65.4
2018-06-01T09:32:17.601Z,65.01
2018-06-01T09:33:27.244Z,64.56
2018-06-01T09:34:37.710Z,64.53
2018-06-01T09:35:47.862Z,63.59
2018-06-01T09:36:57.972Z,63.2
2018-06-01T09:38:08.173Z,62.52
2018-06-01T09:39:18.980Z,62.81
2018-06-01T09:40:29.394Z,62.45
2018-06-01T09:41:40.093Z,61.77
2018-06-01T09:42:50.039Z,61.38
2018-06-01T09:44:00.212Z,61.09
2018-06-01T09:45:10.498Z,61.02
2018-06-01T09:46:20.686Z,61.12
2018-06-01T09:47:30.968Z,61.15
2018-06-01T09:48:41.219Z,60.38
2018-06-01T09:49:51.838Z,59.07
2018-06-01T09:51:02.050Z,59
2018-06-01T09:52:12.692Z,58.06
2018-06-01T09:53:23.207Z,57.57
2018-06-01T09:54:33.348Z,57.47
2018-06-01T09:55:43.511Z,57.47
2018-06-01T09:56:53.707Z,57.57
2018-06-01T09:58:03.887Z,57.09
2018-06-01T09:59:14.068Z,56.89
2018-06-01T10:00:25.029Z,57.15
2018-06-01T10:01:35.890Z,56.86
2018-06-01T10:02:46.363Z,56.3
2018-06-01T10:03:56.988Z,55.52
2018-06-01T10:05:06.841Z,55.55
2018-06-01T10:06:17.427Z,55.29
2018-06-01T10:07:27.650Z,53.56
2018-06-01T10:08:38.266Z,52.25
2018-06-01T10:09:48.876Z,52.27
2018-06-01T10:10:59.441Z,51.12
2018-06-01T10:12:10.467Z,50.95
2018-06-01T10:13:21.563Z,49.9
2018-06-01T10:14:34.315Z,48.68
2018-06-01T10:15:45.364Z,47.23
2018-06-01T10:16:55.899Z,46.76
2018-06-01T10:18:06.762Z,44.53
2018-06-01T10:19:17.152Z,45.61
2018-06-01T10:20:28.600Z,44.43
2018-06-01T10:21:40.389Z,44.35
2018-06-01T10:22:50.607Z,43.76
2018-06-01T10:24:01.198Z,43.57
2018-06-01T10:25:12.120Z,43.27
2018-06-01T10:26:24.397Z,43.84
2018-06-01T10:27:34.749Z,42.49
2018-06-01T10:28:44.981Z,42.58
2018-06-01T10:29:55.473Z,42.29
2018-06-01T10:31:06.212Z,42.58
2018-06-01T10:32:16.381Z,41.72
2018-06-01T10:33:26.774Z,40.94
2018-06-01T10:34:37.919Z,41.16
2018-06-01T10:35:48.543Z,41.45
2018-06-01T10:36:58.926Z,41.55
2018-06-01T10:38:09.858Z,41.45
2018-06-01T10:39:20.871Z,40.86
2018-06-01T10:40:31.026Z,40.86
2018-06-01T10:41:41.791Z,41.25
2018-06-01T10:42:52.431Z,40.76
2018-06-01T10:44:03.100Z,40.66
2018-06-01T10:45:13.531Z,40.19
2018-06-01T10:46:24.859Z,40.09
2018-06-01T10:47:35.464Z,40
2018-06-01T10:48:46.108Z,39.98
2018-06-01T10:49:56.713Z,40.09
2018-06-01T10:51:06.885Z,39.01
2018-06-01T10:52:17.893Z,39.4
2018-06-01T10:53:28.667Z,39.4
2018-06-01T10:54:38.848Z,39.5
2018-06-01T10:55:51.724Z,39.39
2018-06-01T10:57:01.893Z,39.29
2018-06-01T10:58:12.342Z,38.31
2018-06-01T10:59:22.217Z,38.11
2018-06-01T11:00:33.153Z,38.01
2018-06-01T11:01:44.370Z,37.34
2018-06-01T11:02:54.984Z,36.95
2018-06-01T11:04:05.133Z,36.75
2018-06-01T11:05:15.302Z,36.95
2018-06-01T11:06:26.769Z,36.95
2018-06-01T11:07:37.179Z,37.13
2018-06-01T11:08:47.117Z,37.05
2018-06-01T11:09:58.210Z,37.05
2018-06-01T11:11:08.370Z,36.95
2018-06-01T11:12:19.176Z,36.95
2018-06-01T11:13:29.960Z,36.97
2018-06-01T11:14:39.903Z,36.97
2018-06-01T11:15:50.561Z,37.36
2018-06-01T11:17:01.602Z,37.36
2018-06-01T11:18:11.996Z,37.55
2018-06-01T11:19:22.445Z,37.54
2018-06-01T11:20:32.841Z,37.24
2018-06-01T11:21:43.623Z,36.85
2018-06-01T11:22:53.886Z,37.32
2018-06-01T11:24:04.129Z,37.23
2018-06-01T11:25:14.833Z,36.93
2018-06-01T11:26:25.017Z,36.72
2018-06-01T11:27:34.974Z,36.9
2018-06-01T11:28:45.417Z,36.8
2018-06-01T11:29:55.672Z,36.7
2018-06-01T11:31:06.044Z,36.21
2018-06-01T11:32:16.763Z,35.72
2018-06-01T11:33:27.227Z,35.52
2018-06-01T11:34:37.253Z,35.42
2018-06-01T11:35:47.509Z,35.14
2018-06-01T11:36:57.753Z,35.03
2018-06-01T11:38:07.950Z,35.24
2018-06-01T11:39:18.102Z,33.77
2018-06-01T11:40:28.576Z,33.89
2018-06-01T11:41:39.049Z,33.59
2018-06-01T11:42:49.213Z,33.79
2018-06-01T11:43:59.406Z,33.98
2018-06-01T11:45:09.692Z,34.67
2018-06-01T11:46:20.123Z,33.98
2018-06-01T11:47:30.584Z,34.77
2018-06-01T11:48:40.778Z,34.77
2018-06-01T11:49:51.227Z,34.78
2018-06-01T11:51:01.402Z,34.89
2018-06-01T11:52:11.642Z,34.22
2018-06-01T11:53:21.821Z,34.78
2018-06-01T11:54:32.443Z,34.7
2018-06-01T11:55:42.837Z,35
2018-06-01T11:56:53.283Z,34.41
2018-06-01T11:58:03.619Z,33.62
2018-06-01T11:59:13.827Z,33.91
2018-06-01T12:00:24.042Z,33.7
2018-06-01T12:01:34.703Z,34.11
2018-06-01T12:02:45.263Z,34.8
2018-06-01T12:03:55.622Z,35
2018-06-01T12:05:05.882Z,35.08
2018-06-01T12:06:16.307Z,35.1
2018-06-01T12:07:26.768Z,35.2
2018-06-01T12:08:36.970Z,35.3
2018-06-01T12:09:46.892Z,35.49
2018-06-01T12:10:57.085Z,35.78
2018-06-01T12:12:07.891Z,36.26
2018-06-01T12:13:18.111Z,36.46
2018-06-01T12:14:28.105Z,37.13
2018-06-01T12:15:38.328Z,37.21
2018-06-01T12:16:48.177Z,38.07
2018-06-01T12:17:58.595Z,38.15
2018-06-01T12:19:08.800Z,37.86
2018-06-01T12:20:19.178Z,38.15
2018-06-01T12:21:29.561Z,38.53
2018-06-01T12:22:39.741Z,38.13
2018-06-01T12:23:50.193Z,37.92
2018-06-01T12:25:00.817Z,37.23
2018-06-01T12:26:10.983Z,37.71
2018-06-01T12:27:21.973Z,37.71
2018-06-01T12:28:32.487Z,37.69
2018-06-01T12:29:42.691Z,37.88
2018-06-01T12:30:53.125Z,38.08
2018-06-01T12:32:03.566Z,37.39
2018-06-01T12:33:13.825Z,37.19
2018-06-01T12:34:24.216Z,37.1
2018-06-01T12:35:34.681Z,37
2018-06-01T12:36:45.529Z,36.9
2018-06-01T12:37:56.995Z,37
2018-06-01T12:39:07.420Z,36.53
2018-06-01T12:40:17.852Z,36.24
2018-06-01T12:41:28.408Z,35.73
2018-06-01T12:42:38.452Z,35.93
2018-06-01T12:43:49.403Z,36.41
2018-06-01T12:45:00.407Z,36.02
2018-06-01T12:46:11.017Z,36.4
2018-06-01T12:47:23.075Z,37.06
2018-06-01T12:48:34.053Z,38.14
2018-06-01T12:49:47.203Z,38.51
2018-06-01T12:50:57.369Z,39.18
2018-06-01T12:52:07.937Z,39.57
2018-06-01T12:53:18.611Z,39.47
2018-06-01T12:54:29.038Z,40.04
2018-06-01T12:55:39.244Z,40.63
2018-06-01T12:56:50.056Z,41.21
2018-06-01T12:58:00.430Z,41.6
2018-06-01T12:59:11.187Z,41.5
2018-06-01T13:00:21.123Z,41.5
2018-06-01T13:01:31.964Z,41.99
2018-06-01T13:02:42.133Z,42.46
2018-06-01T13:03:52.730Z,43.33
2018-06-01T13:05:03.300Z,43.63
2018-06-01T13:06:13.761Z,44.8
2018-06-01T13:07:24.118Z,45.87
2018-06-01T13:08:34.733Z,45.39
2018-06-01T13:09:45.942Z,45.87
2018-06-01T13:10:56.150Z,46.73
2018-06-01T13:12:07.341Z,46.92
2018-06-01T13:13:17.517Z,47.51
2018-06-01T13:14:28.175Z,47.61
2018-06-01T13:15:39.446Z,47.19
2018-06-01T13:16:49.635Z,47.09
2018-06-01T13:18:00.387Z,47.78
2018-06-01T13:19:10.562Z,49.83
2018-06-01T13:20:21.125Z,49.63
2018-06-01T13:21:32.379Z,49.73
2018-06-01T13:22:42.790Z,49.93
2018-06-01T13:23:53.296Z,50.02
2018-06-01T13:25:04.329Z,49.83
2018-06-01T13:26:14.735Z,50.04
2018-06-01T13:27:25.984Z,50.41
2018-06-01T13:28:37.096Z,50.12
2018-06-01T13:29:47.713Z,50.8
2018-06-01T13:30:59.214Z,50.8
2018-06-01T13:32:09.895Z,51.39
2018-06-01T13:33:20.741Z,51.75
2018-06-01T13:34:31.487Z,52.14
2018-06-01T13:35:42.309Z,52.63
2018-06-01T13:36:53.013Z,53.31
2018-06-01T13:38:03.817Z,52.99
2018-06-01T13:39:14.103Z,53.7
2018-06-01T13:40:24.565Z,53.6
2018-06-01T13:41:35.366Z,53.41
2018-06-01T13:42:46.153Z,53.6
2018-06-01T13:43:57.586Z,54.31
2018-06-01T13:45:08.347Z,54.87
2018-06-01T13:46:19.991Z,54.97
2018-06-01T13:47:30.545Z,54.9
2018-06-01T13:48:42.648Z,54.8
2018-06-01T13:49:53.040Z,54.21
2018-06-01T13:51:03.577Z,54.41
2018-06-01T13:52:14.145Z,54.31
2018-06-01T13:53:24.855Z,54.14
2018-06-01T13:54:36.292Z,54.34
2018-06-01T13:55:48.553Z,54.05
2018-06-01T13:56:59.827Z,54.34
2018-06-01T13:58:13.773Z,54.53
2018-06-01T13:59:24.367Z,54.34
2018-06-01T14:00:35.327Z,54.31
2018-06-01T14:01:46.914Z,54.34
2018-06-01T14:02:58.732Z,54.24
2018-06-01T14:04:09.772Z,54.34
2018-06-01T14:05:21.587Z,54.14
2018-06-01T14:06:32.419Z,53.85
2018-06-01T14:07:43.895Z,54.02
2018-06-01T14:08:56.153Z,54.21
2018-06-01T14:10:07.330Z,54.11
2018-06-01T14:11:18.231Z,53.63
2018-06-01T14:12:29.079Z,54.5
2018-06-01T14:13:39.824Z,54.31
2018-06-01T14:14:52.063Z,54.02
2018-06-01T14:16:02.858Z,54.19
2018-06-01T14:17:13.441Z,54.09
2018-06-01T14:18:24.456Z,54.28
2018-06-01T14:19:35.607Z,54.28
2018-06-01T14:20:45.943Z,54.16
2018-06-01T14:21:57.374Z,54.94
2018-06-01T14:23:08.850Z,55.4
2018-06-01T14:24:19.642Z,55.3
2018-06-01T14:25:30.079Z,55.08
2018-06-01T14:26:43.600Z,55.66
2018-06-01T14:27:54.405Z,56.25
2018-06-01T14:29:05.358Z,57.51
2018-06-01T14:30:16.005Z,57.81
2018-06-01T14:31:27.441Z,57.61
2018-06-01T14:32:38.506Z,57.51
2018-06-01T14:33:49.676Z,58.29
2018-06-01T14:35:00.721Z,57.9
2018-06-01T14:36:11.795Z,58.1
2018-06-01T14:37:23.104Z,59.46
2018-06-01T14:38:33.715Z,59.27
2018-06-01T14:39:44.954Z,60.05
2018-06-01T14:40:56.039Z,60.05
2018-06-01T14:42:06.646Z,59.95
2018-06-01T14:43:18.129Z,60.72
2018-06-01T14:44:30.613Z,60.89
2018-06-01T14:45:41.594Z,61.18
2018-06-01T14:46:53.236Z,61.08
2018-06-01T14:48:05.635Z,62.35
2018-06-01T14:49:16.027Z,61.77
2018-06-01T14:50:27.850Z,62.09
2018-06-01T14:51:38.882Z,61.31
2018-06-01T14:52:49.725Z,61.47
2018-06-01T14:54:00.391Z,61.41
2018-06-01T14:55:10.985Z,61.11
2018-06-01T14:56:21.651Z,60.72
2018-06-01T14:57:33.077Z,60.72
2018-06-01T14:58:43.657Z,61.02
2018-06-01T14:59:54.268Z,60.92
2018-06-01T15:01:06.861Z,60.63
2018-06-01T15:02:18.470Z,60.82
2018-06-01T15:03:29.045Z,61.18
2018-06-01T15:04:39.225Z,60.6
2018-06-01T15:05:50.343Z,60.05
2018-06-01T15:07:03.909Z,60.53
2018-06-01T15:08:16.142Z,60.11
2018-06-01T15:09:27.647Z,60.34
2018-06-01T15:10:37.829Z,60.24
2018-06-01T15:11:49.474Z,60.24
2018-06-01T15:12:59.842Z,59.95